createdAt,value
2023-08-03T00:01:13.759Z,15.80
2023-08-03T00:03:41.948Z,15.80
2023-08-03T00:06:10.140Z,15.80
2023-08-03T00:08:38.373Z,15.80
2023-08-03T00:11:07.818Z,15.80
2023-08-03T00:13:35.857Z,15.80
2023-08-03T00:16:03.954Z,15.80
2023-08-03T00:18:32.056Z,15.70
2023-08-03T00:21:00.225Z,15.70
2023-08-03T00:23:28.303Z,15.60
2023-08-03T00:25:56.355Z,15.60
2023-08-03T00:28:25.798Z,15.60
2023-08-03T00:30:53.847Z,15.60
2023-08-03T00:33:21.903Z,15.60
2023-08-03T00:35:50.065Z,15.50
2023-08-03T00:38:18.037Z,15.50
2023-08-03T00:40:46.169Z,15.50
2023-08-03T00:43:14.167Z,15.50
2023-08-03T00:45:43.652Z,15.40
2023-08-03T00:48:11.905Z,15.40
2023-08-03T00:50:40.177Z,15.40
2023-08-03T00:53:08.502Z,15.40
2023-08-03T00:55:36.955Z,15.50
2023-08-03T00:58:05.189Z,15.50
2023-08-03T01:00:33.295Z,15.50
2023-08-03T01:03:03.479Z,15.50
2023-08-03T01:05:33.741Z,15.40
2023-08-03T01:08:01.845Z,15.50
2023-08-03T01:10:30.582Z,15.50
2023-08-03T01:12:59.375Z,15.40
2023-08-03T01:15:27.620Z,15.40
2023-08-03T01:17:55.817Z,15.40
2023-08-03T01:20:27.241Z,15.40
2023-08-03T01:22:56.674Z,15.40
2023-08-03T01:25:24.705Z,15.50
2023-08-03T01:27:52.729Z,15.50
2023-08-03T01:30:20.913Z,15.50
2023-08-03T01:32:49.054Z,15.50
2023-08-03T01:35:17.364Z,15.50
2023-08-03T01:37:45.458Z,15.50
2023-08-03T01:40:15.679Z,15.50
2023-08-03T01:42:43.771Z,15.50
2023-08-03T01:45:12.198Z,15.60
2023-08-03T01:47:40.327Z,15.60
2023-08-03T01:50:09.006Z,15.50
2023-08-03T01:52:37.085Z,15.60
2023-08-03T01:55:05.484Z,15.50
2023-08-03T01:57:35.049Z,15.60
2023-08-03T02:00:03.289Z,15.50
2023-08-03T02:02:31.410Z,15.50
2023-08-03T02:04:59.577Z,15.60
2023-08-03T02:07:45.104Z,15.50
2023-08-03T02:10:13.672Z,15.50
2023-08-03T02:12:43.158Z,15.60
2023-08-03T02:15:13.050Z,15.60
2023-08-03T02:17:41.275Z,15.60
2023-08-03T02:20:10.362Z,15.60
2023-08-03T02:22:38.391Z,15.60
2023-08-03T02:25:07.208Z,15.60
2023-08-03T02:27:35.326Z,15.60
2023-08-03T02:30:05.059Z,15.60
2023-08-03T02:32:33.139Z,15.60
2023-08-03T02:35:01.314Z,15.70
2023-08-03T02:37:29.375Z,15.70
2023-08-03T02:39:57.428Z,15.60
2023-08-03T02:42:25.397Z,15.60
2023-08-03T02:44:53.405Z,15.60
2023-08-03T02:47:22.965Z,15.60
2023-08-03T02:49:51.740Z,15.60
2023-08-03T02:52:19.789Z,15.60
2023-08-03T02:54:47.834Z,15.60
2023-08-03T02:57:15.923Z,15.60
2023-08-03T02:59:44.014Z,15.50
2023-08-03T03:02:12.313Z,15.50
2023-08-03T03:04:41.697Z,15.40
2023-08-03T03:07:10.084Z,15.40
2023-08-03T03:09:38.435Z,15.40
2023-08-03T03:12:07.018Z,15.40
2023-08-03T03:14:36.272Z,15.40
2023-08-03T03:17:04.634Z,15.50
2023-08-03T03:19:32.687Z,15.50
2023-08-03T03:22:02.489Z,15.50
2023-08-03T03:24:30.512Z,15.50
2023-08-03T03:26:58.519Z,15.50
2023-08-03T03:29:26.561Z,15.40
2023-08-03T03:31:54.669Z,15.40
2023-08-03T03:34:22.699Z,15.40
2023-08-03T03:36:51.551Z,15.40
2023-08-03T03:39:20.982Z,15.30
2023-08-03T03:41:49.023Z,15.20
2023-08-03T03:44:17.187Z,15.20
2023-08-03T03:46:45.148Z,15.10
2023-08-03T03:49:13.185Z,15.10
2023-08-03T03:51:41.203Z,15.10
2023-08-03T03:54:09.292Z,15.10
2023-08-03T03:56:38.684Z,15.10
2023-08-03T03:59:06.706Z,15.20
2023-08-03T04:01:34.839Z,15.20
2023-08-03T04:04:02.945Z,15.20
2023-08-03T04:06:31.221Z,15.20
2023-08-03T04:08:59.417Z,15.30
2023-08-03T04:11:27.458Z,15.30
2023-08-03T04:13:57.111Z,15.40
2023-08-03T04:16:25.276Z,15.30
2023-08-03T04:18:53.467Z,15.40
2023-08-03T04:21:21.574Z,15.30
2023-08-03T04:23:49.657Z,15.30
2023-08-03T04:26:17.735Z,15.30
2023-08-03T04:28:45.813Z,15.20
2023-08-03T04:31:15.348Z,15.20
2023-08-03T04:33:43.557Z,15.10
2023-08-03T04:36:11.838Z,15.10
2023-08-03T04:38:39.900Z,15.20
2023-08-03T04:41:07.982Z,15.20
2023-08-03T04:43:36.131Z,15.10
2023-08-03T04:46:04.192Z,15.10
2023-08-03T04:48:33.710Z,15.20
2023-08-03T04:51:02.382Z,15.20
2023-08-03T04:53:30.457Z,15.30
2023-08-03T04:55:58.603Z,15.30
2023-08-03T04:58:26.714Z,15.30
2023-08-03T05:00:54.916Z,15.40
2023-08-03T05:03:23.232Z,15.40
2023-08-03T05:05:52.764Z,15.40
2023-08-03T05:08:23.974Z,15.40
2023-08-03T05:10:52.436Z,15.50
2023-08-03T05:13:22.304Z,15.50
2023-08-03T05:15:50.406Z,15.70
2023-08-03T05:18:18.480Z,15.70
2023-08-03T05:20:46.564Z,15.80
2023-08-03T05:23:16.102Z,15.90
2023-08-03T05:25:44.183Z,15.90
2023-08-03T05:28:12.270Z,16.00
2023-08-03T05:30:40.561Z,16.00
2023-08-03T05:33:08.781Z,16.10
2023-08-03T05:35:36.894Z,16.10
2023-08-03T05:38:04.997Z,16.20
2023-08-03T05:40:34.547Z,16.20
2023-08-03T05:43:02.638Z,16.30
2023-08-03T05:45:39.987Z,16.30
2023-08-03T05:48:14.568Z,16.40
2023-08-03T05:50:44.261Z,16.50
2023-08-03T05:53:13.307Z,16.50
2023-08-03T05:55:43.880Z,16.60
2023-08-03T05:58:15.584Z,16.80
2023-08-03T06:00:44.953Z,16.90
2023-08-03T06:03:14.917Z,17.00
2023-08-03T06:05:44.675Z,17.30
2023-08-03T06:08:16.584Z,17.70
2023-08-03T06:10:47.007Z,18.20
2023-08-03T06:13:17.080Z,18.50
2023-08-03T06:15:46.699Z,19.00
2023-08-03T06:18:17.093Z,19.50
2023-08-03T06:20:47.127Z,19.60
2023-08-03T06:23:19.209Z,20.00
2023-08-03T06:25:49.956Z,19.90
2023-08-03T06:28:20.177Z,19.70
2023-08-03T06:30:49.734Z,19.90
2023-08-03T06:33:19.553Z,20.00
2023-08-03T06:35:48.869Z,20.00
2023-08-03T06:38:18.526Z,19.90
2023-08-03T06:40:49.740Z,19.80
2023-08-03T06:43:18.655Z,19.70
2023-08-03T06:45:47.141Z,20.00
2023-08-03T06:48:16.294Z,20.00
2023-08-03T06:50:45.834Z,20.30
2023-08-03T06:53:15.171Z,20.40
2023-08-03T06:55:45.522Z,20.80
2023-08-03T06:58:15.767Z,22.00
2023-08-03T07:00:43.819Z,22.90
2023-08-03T07:03:13.124Z,23.50
2023-08-03T07:05:41.980Z,23.80
2023-08-03T07:08:10.325Z,24.30
2023-08-03T07:10:39.917Z,25.00
2023-08-03T07:13:08.076Z,25.20
2023-08-03T07:15:37.608Z,25.80
2023-08-03T07:18:07.320Z,26.10
2023-08-03T07:20:36.813Z,25.90
2023-08-03T07:23:07.771Z,26.10
2023-08-03T07:25:36.274Z,26.70
2023-08-03T07:28:05.173Z,27.20
2023-08-03T07:30:36.536Z,27.10
2023-08-03T07:33:06.177Z,26.70
2023-08-03T07:35:34.257Z,26.70
2023-08-03T07:38:02.640Z,27.20
2023-08-03T07:40:31.762Z,27.30
2023-08-03T07:42:59.952Z,26.90
2023-08-03T07:47:59.802Z,28.60
2023-08-03T07:50:29.573Z,28.50
2023-08-03T07:52:57.797Z,28.90
2023-08-03T07:55:26.009Z,29.60
2023-08-03T07:57:54.715Z,28.60
2023-08-03T08:00:23.408Z,28.40
2023-08-03T08:02:51.785Z,28.60
2023-08-03T08:05:20.127Z,28.10
2023-08-03T08:07:49.721Z,28.30
2023-08-03T08:10:18.282Z,28.30
2023-08-03T08:12:49.166Z,28.10
2023-08-03T08:15:18.065Z,27.50
2023-08-03T08:17:46.200Z,28.00
2023-08-03T08:20:14.520Z,28.50
2023-08-03T08:22:42.836Z,28.40
2023-08-03T08:25:12.807Z,28.50
2023-08-03T08:27:40.988Z,28.50
2023-08-03T08:30:10.789Z,27.50
2023-08-03T08:32:39.700Z,28.80
2023-08-03T08:35:08.765Z,29.20
2023-08-03T08:37:36.818Z,29.10
2023-08-03T08:40:06.002Z,29.40
2023-08-03T08:42:36.805Z,29.30
2023-08-03T08:45:06.457Z,29.30
2023-08-03T08:47:34.962Z,29.70
2023-08-03T08:53:15.170Z,30.10
2023-08-03T09:00:29.835Z,30.20
2023-08-03T09:02:58.916Z,29.80
2023-08-03T09:08:02.561Z,30.40
2023-08-03T09:10:31.088Z,29.90
2023-08-03T09:13:01.245Z,29.20
2023-08-03T09:15:40.780Z,29.20
2023-08-03T09:18:09.748Z,30.10
2023-08-03T09:25:52.611Z,30.60
2023-08-03T09:36:06.857Z,29.70
2023-08-03T09:38:35.001Z,30.10
2023-08-03T09:41:03.270Z,30.20
2023-08-03T09:43:35.963Z,31.30
2023-08-03T09:46:04.754Z,31.40
2023-08-03T09:48:32.933Z,30.70
2023-08-03T09:51:03.331Z,30.70
2023-08-03T09:53:32.644Z,30.50
2023-08-03T09:56:03.025Z,30.40
2023-08-03T09:58:59.237Z,30.60
2023-08-03T10:01:29.934Z,30.80
2023-08-03T10:04:01.584Z,30.70
2023-08-03T10:06:34.457Z,30.60
2023-08-03T10:09:07.054Z,31.00
2023-08-03T10:11:39.330Z,30.80
2023-08-03T10:14:11.987Z,31.50
2023-08-03T10:16:42.013Z,30.70
2023-08-03T10:19:10.650Z,29.90
2023-08-03T10:21:39.196Z,30.10
2023-08-03T10:24:12.782Z,30.80
2023-08-03T10:26:41.730Z,30.90
2023-08-03T10:29:11.890Z,30.70
2023-08-03T10:31:56.722Z,30.60
2023-08-03T10:34:28.587Z,30.70
2023-08-03T10:37:01.388Z,30.10
2023-08-03T10:39:55.247Z,29.80
2023-08-03T10:42:28.834Z,29.90
2023-08-03T10:45:29.542Z,30.20
2023-08-03T10:48:28.222Z,30.80
2023-08-03T10:51:00.882Z,31.30
2023-08-03T10:53:29.095Z,30.90
2023-08-03T10:56:08.731Z,29.70
2023-08-03T10:58:49.503Z,28.90
2023-08-03T11:01:23.694Z,28.30
2023-08-03T11:03:52.690Z,28.00
2023-08-03T11:06:21.179Z,27.70
2023-08-03T11:08:51.544Z,27.60
2023-08-03T11:11:23.621Z,27.20
2023-08-03T11:13:52.167Z,27.10
2023-08-03T11:16:24.618Z,26.90
2023-08-03T11:18:52.818Z,27.20
2023-08-03T11:21:20.925Z,27.00
2023-08-03T11:23:49.007Z,26.60
2023-08-03T11:26:18.599Z,26.70
2023-08-03T11:28:47.390Z,27.20
2023-08-03T11:31:18.894Z,27.40
2023-08-03T11:33:51.916Z,27.60
2023-08-03T11:36:20.507Z,27.50
2023-08-03T11:38:48.868Z,27.00
2023-08-03T11:41:28.102Z,26.80
2023-08-03T11:44:00.837Z,25.80
2023-08-03T11:46:30.010Z,25.50
2023-08-03T11:49:00.603Z,26.00
2023-08-03T11:51:36.386Z,26.40
2023-08-03T11:54:05.388Z,26.40
2023-08-03T11:56:43.758Z,26.90
2023-08-03T11:59:11.934Z,26.50
2023-08-03T12:01:48.201Z,26.30
2023-08-03T12:04:19.045Z,26.10
2023-08-03T12:06:51.612Z,25.90
2023-08-03T12:09:21.883Z,26.00
2023-08-03T12:11:50.765Z,26.00
2023-08-03T12:14:19.991Z,25.80
2023-08-03T12:16:48.691Z,25.80
2023-08-03T12:19:20.293Z,25.70
2023-08-03T12:21:48.737Z,25.30
2023-08-03T12:24:17.030Z,25.00
2023-08-03T12:26:45.671Z,24.70
2023-08-03T12:29:14.519Z,24.60
2023-08-03T12:31:42.766Z,24.60
2023-08-03T12:34:11.061Z,25.00
2023-08-03T12:36:40.989Z,25.20
2023-08-03T12:39:10.614Z,25.60
2023-08-03T12:41:39.019Z,25.90
2023-08-03T12:44:07.322Z,26.40
2023-08-03T12:46:35.394Z,26.50
2023-08-03T12:49:04.859Z,26.70
2023-08-03T12:51:33.023Z,26.90
2023-08-03T12:54:02.542Z,26.90
2023-08-03T12:56:30.683Z,26.20
2023-08-03T12:58:58.809Z,25.90
2023-08-03T13:01:27.617Z,25.50
2023-08-03T13:03:55.733Z,25.40
2023-08-03T13:06:23.924Z,25.20
2023-08-03T13:08:52.050Z,24.90
2023-08-03T13:11:21.979Z,25.30
2023-08-03T13:13:50.236Z,25.70
2023-08-03T13:16:20.282Z,25.90
2023-08-03T13:18:50.311Z,26.10
2023-08-03T13:21:20.670Z,26.50
2023-08-03T13:23:50.536Z,26.70
2023-08-03T13:26:18.684Z,26.60
2023-08-03T13:28:51.725Z,26.40
2023-08-03T13:31:20.862Z,26.00
2023-08-03T13:33:49.056Z,26.10
2023-08-03T13:36:17.263Z,26.40
2023-08-03T13:38:45.420Z,26.80
2023-08-03T13:41:13.559Z,26.40
2023-08-03T13:43:42.636Z,25.80
2023-08-03T13:46:12.119Z,25.90
2023-08-03T13:48:40.233Z,26.40
2023-08-03T13:51:08.564Z,26.70
2023-08-03T13:53:36.708Z,26.30
2023-08-03T13:56:05.168Z,26.20
2023-08-03T13:58:47.557Z,25.70
2023-08-03T14:01:17.488Z,25.70
2023-08-03T14:03:45.736Z,26.10
2023-08-03T14:18:50.644Z,27.10
2023-08-03T14:21:49.808Z,26.60
2023-08-03T14:24:07.072Z,26.20
2023-08-03T14:26:35.235Z,25.70
2023-08-03T14:29:03.545Z,25.30
2023-08-03T14:31:33.630Z,25.20
2023-08-03T14:34:02.279Z,25.30
2023-08-03T14:36:30.477Z,25.40
2023-08-03T14:38:58.573Z,25.50
2023-08-03T14:41:28.764Z,25.40
2023-08-03T14:46:28.286Z,25.00
2023-08-03T14:49:09.913Z,25.10
2023-08-03T14:54:11.381Z,25.60
2023-08-03T14:56:39.676Z,25.70
2023-08-03T14:59:08.227Z,25.90
2023-08-03T15:01:36.892Z,26.00
2023-08-03T15:04:07.837Z,25.90
2023-08-03T15:06:40.634Z,25.70
2023-08-03T15:09:09.661Z,25.70
2023-08-03T15:11:38.001Z,26.00
2023-08-03T15:14:06.190Z,25.70
2023-08-03T15:16:34.814Z,25.60
2023-08-03T15:21:35.954Z,25.60
2023-08-03T15:24:05.248Z,25.80
2023-08-03T15:26:36.029Z,25.40
2023-08-03T15:29:07.285Z,25.50
2023-08-03T15:31:37.739Z,25.60
2023-08-03T15:34:07.641Z,25.60
2023-08-03T15:36:41.494Z,25.50
2023-08-03T15:39:14.757Z,25.40
2023-08-03T15:41:45.899Z,25.50
2023-08-03T15:44:17.845Z,25.50
2023-08-03T15:49:21.830Z,25.60
2023-08-03T15:51:56.548Z,25.20
2023-08-03T15:54:31.423Z,24.70
2023-08-03T15:57:03.927Z,24.30
2023-08-03T15:59:32.332Z,24.20
2023-08-03T16:02:00.625Z,24.00
2023-08-03T16:04:28.769Z,23.80
2023-08-03T16:06:58.224Z,23.70
2023-08-03T16:09:26.513Z,23.60
2023-08-03T16:11:55.647Z,23.50
2023-08-03T16:14:24.154Z,23.40
2023-08-03T16:16:52.454Z,23.40
2023-08-03T16:19:20.837Z,23.30
2023-08-03T16:21:49.201Z,23.30
2023-08-03T16:24:18.892Z,23.30
2023-08-03T16:26:47.614Z,23.30
2023-08-03T16:29:16.606Z,23.60
2023-08-03T16:34:22.615Z,23.60
2023-08-03T16:36:55.212Z,23.50
2023-08-03T16:39:25.603Z,23.40
2023-08-03T16:41:53.793Z,23.30
2023-08-03T16:44:21.897Z,23.20
2023-08-03T16:46:50.311Z,23.00
2023-08-03T16:49:20.649Z,23.00
2023-08-03T16:51:49.644Z,22.90
2023-08-03T16:54:17.816Z,22.80
2023-08-03T16:56:47.626Z,22.90
2023-08-03T16:59:16.038Z,23.00
2023-08-03T17:01:44.957Z,23.20
2023-08-03T17:04:13.496Z,23.30
2023-08-03T17:06:41.936Z,23.50
2023-08-03T17:09:10.426Z,23.60
2023-08-03T17:11:38.553Z,23.60
2023-08-03T17:14:08.865Z,23.50
2023-08-03T17:16:37.084Z,23.40
2023-08-03T17:19:05.302Z,23.30
2023-08-03T17:21:33.466Z,23.10
2023-08-03T17:24:01.703Z,23.00
2023-08-03T17:26:30.341Z,22.90
2023-08-03T17:28:58.438Z,22.80
2023-08-03T17:31:27.971Z,22.70
2023-08-03T17:33:56.116Z,22.60
2023-08-03T17:36:24.371Z,22.60
2023-08-03T17:38:52.773Z,22.50
2023-08-03T17:41:20.908Z,22.50
2023-08-03T17:43:48.980Z,22.30
2023-08-03T17:46:17.105Z,22.30
2023-08-03T17:48:47.834Z,22.10
2023-08-03T17:51:16.621Z,22.00
2023-08-03T17:53:46.089Z,22.00
2023-08-03T17:56:16.371Z,21.90
2023-08-03T17:58:46.532Z,21.90
2023-08-03T18:01:17.211Z,21.90
2023-08-03T18:03:47.021Z,21.70
2023-08-03T18:06:16.683Z,21.70
2023-08-03T18:08:45.644Z,21.60
2023-08-03T18:11:13.833Z,21.40
2023-08-03T18:13:41.921Z,21.30
2023-08-03T18:16:10.544Z,21.20
2023-08-03T18:18:41.280Z,21.10
2023-08-03T18:21:15.778Z,21.00
2023-08-03T18:23:44.262Z,20.90
2023-08-03T18:26:13.710Z,20.80
2023-08-03T18:28:41.889Z,20.70
2023-08-03T18:31:11.420Z,20.70
2023-08-03T18:33:41.031Z,20.70
2023-08-03T18:36:13.014Z,20.70
2023-08-03T18:38:42.684Z,20.70
2023-08-03T18:41:12.645Z,20.60
2023-08-03T18:43:40.949Z,20.50
2023-08-03T18:46:11.012Z,20.50
2023-08-03T18:48:40.055Z,20.50
2023-08-03T18:51:11.481Z,20.40
2023-08-03T18:53:41.029Z,20.40
2023-08-03T18:56:10.905Z,20.30
2023-08-03T18:58:40.511Z,20.30
2023-08-03T19:01:10.692Z,20.30
2023-08-03T19:03:40.725Z,20.30
2023-08-03T19:06:12.069Z,20.20
2023-08-03T19:08:41.794Z,20.20
2023-08-03T19:11:10.133Z,20.10
2023-08-03T19:13:39.082Z,20.10
2023-08-03T19:16:07.265Z,20.00
2023-08-03T19:18:35.624Z,20.00
2023-08-03T19:21:03.782Z,20.00
2023-08-03T19:23:33.333Z,19.90
2023-08-03T19:26:02.635Z,19.90
2023-08-03T19:28:30.899Z,19.90
2023-08-03T19:31:00.108Z,19.90
2023-08-03T19:33:28.263Z,19.70
2023-08-03T19:35:56.649Z,19.70
2023-08-03T19:38:24.920Z,19.60
2023-08-03T19:40:55.642Z,19.60
2023-08-03T19:43:24.004Z,19.50
2023-08-03T19:45:52.201Z,19.50
2023-08-03T19:48:20.453Z,19.40
2023-08-03T19:59:31.546Z,19.10
2023-08-03T20:06:16.541Z,19.00
2023-08-03T20:08:48.277Z,19.00
2023-08-03T20:11:17.341Z,19.00
2023-08-03T20:21:20.458Z,18.80
2023-08-03T20:23:48.656Z,18.80
2023-08-03T20:26:24.666Z,18.70
2023-08-03T20:29:04.002Z,18.70
2023-08-03T20:31:33.385Z,18.60
2023-08-03T20:36:33.002Z,18.60
2023-08-03T20:39:16.656Z,18.60
2023-08-03T20:45:00.229Z,18.50
2023-08-03T20:49:44.481Z,18.50
2023-08-03T20:52:14.017Z,18.50
2023-08-03T20:54:43.418Z,18.30
2023-08-03T20:57:11.849Z,18.20
2023-08-03T20:59:41.458Z,18.10
2023-08-03T21:02:09.619Z,18.00
2023-08-03T21:04:39.339Z,17.70
2023-08-03T21:07:08.127Z,17.50
2023-08-03T21:09:36.507Z,17.30
2023-08-03T21:12:05.582Z,17.20
2023-08-03T21:14:33.730Z,17.10
2023-08-03T21:17:03.236Z,17.00
2023-08-03T21:19:31.483Z,16.90
2023-08-03T21:22:00.120Z,16.80
2023-08-03T21:24:28.667Z,16.70
2023-08-03T21:26:56.800Z,16.60
2023-08-03T21:29:24.951Z,16.50
2023-08-03T21:31:53.042Z,16.40
2023-08-03T21:34:22.608Z,16.40
2023-08-03T21:36:50.723Z,16.30
2023-08-03T21:39:19.032Z,16.30
2023-08-03T21:41:47.555Z,16.20
2023-08-03T21:44:16.028Z,16.20
2023-08-03T21:46:44.252Z,16.20
2023-08-03T21:49:12.490Z,16.20
2023-08-03T21:51:42.089Z,16.20
2023-08-03T21:54:10.228Z,16.20
2023-08-03T21:56:38.324Z,16.10
2023-08-03T21:59:06.524Z,16.10
2023-08-03T22:01:34.689Z,16.10
2023-08-03T22:04:02.916Z,16.10
2023-08-03T22:06:31.045Z,16.00
2023-08-03T22:09:00.570Z,16.00
2023-08-03T22:11:28.857Z,16.00
2023-08-03T22:13:58.429Z,15.90
2023-08-03T22:16:27.303Z,16.00
2023-08-03T22:18:55.726Z,15.90
2023-08-03T22:21:23.922Z,15.90
2023-08-03T22:23:52.684Z,15.90
2023-08-03T22:26:23.409Z,15.80
2023-08-03T22:28:51.541Z,15.80
2023-08-03T22:31:20.102Z,15.70
2023-08-03T22:33:48.253Z,15.70
2023-08-03T22:36:18.103Z,15.70
2023-08-03T22:38:47.616Z,15.60
2023-08-03T22:41:16.255Z,15.60
2023-08-03T22:43:46.068Z,15.60
2023-08-03T22:46:18.612Z,15.60
2023-08-03T22:48:46.913Z,15.50
2023-08-03T22:51:16.723Z,15.50
2023-08-03T22:53:45.593Z,15.50
2023-08-03T22:56:13.849Z,15.50
2023-08-03T22:58:42.086Z,15.50
2023-08-03T23:01:19.650Z,15.50
2023-08-03T23:03:49.086Z,15.60
2023-08-03T23:06:18.461Z,15.50
2023-08-03T23:08:46.581Z,15.50
2023-08-03T23:11:15.092Z,15.50
2023-08-03T23:13:44.149Z,15.50
2023-08-03T23:16:20.524Z,15.50
2023-08-03T23:18:49.096Z,15.40
2023-08-03T23:21:17.421Z,15.40
2023-08-03T23:23:45.658Z,15.40
2023-08-03T23:26:15.665Z,15.40
2023-08-03T23:28:44.770Z,15.40
2023-08-03T23:31:13.788Z,15.40
2023-08-03T23:33:43.306Z,15.40
2023-08-03T23:36:11.492Z,15.50
2023-08-03T23:38:39.551Z,15.50
2023-08-03T23:41:07.576Z,15.50
2023-08-03T23:43:35.624Z,15.50
2023-08-03T23:46:03.910Z,15.50
2023-08-03T23:48:32.012Z,15.50
2023-08-03T23:51:01.445Z,15.50
2023-08-03T23:53:29.500Z,15.50
2023-08-03T23:55:57.604Z,15.50
2023-08-03T23:58:25.663Z,15.40
